createdAt,value
2023-04-07T00:01:15.677Z,100534.75
2023-04-07T00:03:44.158Z,100528.22
2023-04-07T00:06:12.583Z,100539.06
2023-04-07T00:08:41.256Z,100532.28
2023-04-07T00:11:11.145Z,100529.00
2023-04-07T00:13:39.429Z,100532.53
2023-04-07T00:16:08.069Z,100536.34
2023-04-07T00:18:36.422Z,100530.09
2023-04-07T00:21:04.668Z,100532.53
2023-04-07T00:23:33.954Z,100527.66
2023-04-07T00:26:02.404Z,100527.91
2023-04-07T00:28:31.979Z,100527.09
2023-04-07T00:31:00.424Z,100523.56
2023-04-07T00:33:28.742Z,100526.81
2023-04-07T00:35:58.447Z,100526.00
2023-04-07T00:38:27.037Z,100525.19
2023-04-07T00:40:58.594Z,100521.13
2023-04-07T00:43:27.235Z,100523.84
2023-04-07T00:45:57.005Z,100526.00
2023-04-07T00:48:25.647Z,100517.84
2023-04-07T00:50:54.021Z,100514.06
2023-04-07T00:53:22.273Z,100518.69
2023-04-07T00:55:51.064Z,100515.13
2023-04-07T00:58:19.410Z,100515.97
2023-04-07T01:00:50.709Z,100520.56
2023-04-07T01:03:26.184Z,100519.50
2023-04-07T01:05:56.303Z,100507.53
2023-04-07T01:08:28.159Z,100514.59
2023-04-07T01:10:58.853Z,100508.06
2023-04-07T01:13:29.794Z,100502.63
2023-04-07T01:15:59.477Z,100501.28
2023-04-07T01:18:32.439Z,100501.56
2023-04-07T01:21:03.401Z,100499.38
2023-04-07T01:23:40.363Z,100504.53
2023-04-07T01:26:18.459Z,100500.47
2023-04-07T01:28:58.813Z,100498.81
2023-04-07T01:31:29.690Z,100494.75
2023-04-07T01:33:59.723Z,100496.38
2023-04-07T01:36:29.552Z,100501.00
2023-04-07T01:38:59.665Z,100492.56
2023-04-07T01:41:28.192Z,100493.94
2023-04-07T01:43:57.383Z,100497.72
2023-04-07T01:46:25.919Z,100493.94
2023-04-07T01:48:56.295Z,100494.47
2023-04-07T01:51:25.166Z,100497.19
2023-04-07T01:53:53.896Z,100498.81
2023-04-07T01:56:22.353Z,100495.56
2023-04-07T01:58:50.659Z,100492.28
2023-04-07T02:01:19.257Z,100488.19
2023-04-07T02:03:50.805Z,100489.28
2023-04-07T02:06:21.868Z,100488.47
2023-04-07T02:08:53.152Z,100483.56
2023-04-07T02:11:22.709Z,100482.75
2023-04-07T02:13:52.614Z,100489.00
2023-04-07T02:16:21.809Z,100491.16
2023-04-07T02:18:50.959Z,100489.53
2023-04-07T02:21:40.860Z,100490.88
2023-04-07T02:24:09.589Z,100488.69
2023-04-07T02:26:37.867Z,100487.06
2023-04-07T02:29:06.863Z,100490.34
2023-04-07T02:31:37.921Z,100497.66
2023-04-07T02:34:06.559Z,100494.41
2023-04-07T02:36:34.853Z,100488.97
2023-04-07T02:39:04.744Z,100488.69
2023-04-07T02:41:38.357Z,100488.97
2023-04-07T02:44:09.188Z,100485.16
2023-04-07T02:46:37.961Z,100489.78
2023-04-07T02:49:08.189Z,100491.13
2023-04-07T02:51:36.408Z,100491.41
2023-04-07T02:54:09.500Z,100495.47
2023-04-07T02:56:37.803Z,100492.22
2023-04-07T02:59:10.832Z,100492.22
2023-04-07T03:01:42.385Z,100489.78
2023-04-07T03:04:14.314Z,100491.94
2023-04-07T03:06:47.721Z,100486.22
2023-04-07T03:09:24.136Z,100490.03
2023-04-07T03:11:55.720Z,100493.81
2023-04-07T03:14:25.862Z,100485.66
2023-04-07T03:16:54.115Z,100493.22
2023-04-07T03:19:22.500Z,100486.97
2023-04-07T03:21:50.750Z,100489.41
2023-04-07T03:24:23.129Z,100494.00
2023-04-07T03:26:52.064Z,100487.47
2023-04-07T03:29:26.461Z,100492.63
2023-04-07T03:31:55.493Z,100489.88
2023-04-07T03:34:25.067Z,100489.81
2023-04-07T03:36:53.505Z,100494.41
2023-04-07T03:39:29.185Z,100493.06
2023-04-07T03:42:05.301Z,100495.50
2023-04-07T03:44:33.886Z,100501.75
2023-04-07T03:47:07.836Z,100495.19
2023-04-07T03:49:38.608Z,100497.38
2023-04-07T03:52:07.102Z,100498.22
2023-04-07T03:54:39.830Z,100499.28
2023-04-07T03:57:09.469Z,100505.53
2023-04-07T03:59:39.191Z,100505.56
2023-04-07T04:02:27.654Z,100506.91
2023-04-07T04:05:01.009Z,100510.47
2023-04-07T04:07:29.363Z,100511.56
2023-04-07T04:10:03.935Z,100509.91
2023-04-07T04:12:32.328Z,100514.25
2023-04-07T04:15:06.554Z,100511.78
2023-04-07T04:17:37.890Z,100514.78
2023-04-07T04:20:07.472Z,100512.34
2023-04-07T04:22:38.318Z,100508.28
2023-04-07T04:25:10.182Z,100518.66
2023-04-07T04:27:38.597Z,100511.84
2023-04-07T04:30:09.653Z,100520.03
2023-04-07T04:32:38.536Z,100523.53
2023-04-07T04:35:07.310Z,100525.72
2023-04-07T04:37:35.642Z,100524.66
2023-04-07T04:40:05.624Z,100528.72
2023-04-07T04:42:35.401Z,100534.44
2023-04-07T04:45:03.894Z,100542.31
2023-04-07T04:47:35.334Z,100539.34
2023-04-07T04:50:03.731Z,100539.34
2023-04-07T04:52:35.618Z,100542.06
2023-04-07T04:55:07.378Z,100538.25
2023-04-07T04:57:38.429Z,100544.78
2023-04-07T05:00:08.018Z,100543.97
2023-04-07T05:02:37.874Z,100542.94
2023-04-07T05:05:09.642Z,100552.97
2023-04-07T05:07:40.305Z,100545.59
2023-04-07T05:10:09.294Z,100553.50
2023-04-07T05:12:38.925Z,100548.59
2023-04-07T05:15:07.937Z,100553.22
2023-04-07T05:17:36.308Z,100558.94
2023-04-07T05:20:05.140Z,100563.84
2023-04-07T05:22:33.411Z,100567.72
2023-04-07T05:25:01.739Z,100566.88
2023-04-07T05:27:29.982Z,100562.25
2023-04-07T05:29:59.828Z,100572.59
2023-04-07T05:32:29.263Z,100577.50
2023-04-07T05:34:57.732Z,100572.59
2023-04-07T05:37:26.005Z,100576.69
2023-04-07T05:39:54.229Z,100575.06
2023-04-07T05:42:25.537Z,100581.03
2023-04-07T05:44:53.780Z,100579.41
2023-04-07T05:47:23.565Z,100582.91
2023-04-07T05:49:51.779Z,100587.28
2023-04-07T05:52:20.507Z,100576.41
2023-04-07T05:54:49.046Z,100585.66
2023-04-07T05:57:17.257Z,100588.09
2023-04-07T05:59:46.031Z,100592.75
2023-04-07T06:02:14.737Z,100601.41
2023-04-07T06:04:44.421Z,100601.41
2023-04-07T06:07:12.858Z,100600.84
2023-04-07T06:09:51.940Z,100597.03
2023-04-07T06:12:20.429Z,100600.31
2023-04-07T06:14:52.564Z,100610.63
2023-04-07T06:17:21.186Z,100603.31
2023-04-07T06:19:50.879Z,100608.47
2023-04-07T06:22:19.159Z,100612.84
2023-04-07T06:24:47.518Z,100619.38
2023-04-07T06:27:16.339Z,100615.00
2023-04-07T06:29:44.872Z,100612.81
2023-04-07T06:32:13.670Z,100619.06
2023-04-07T06:34:42.103Z,100617.13
2023-04-07T06:37:11.846Z,100621.50
2023-04-07T06:39:40.389Z,100624.19
2023-04-07T06:42:08.835Z,100620.38
2023-04-07T06:44:37.151Z,100619.28
2023-04-07T06:47:05.625Z,100632.91
2023-04-07T06:49:35.664Z,100638.03
2023-04-07T06:52:05.964Z,100634.50
2023-04-07T06:54:35.688Z,100634.22
2023-04-07T06:57:03.996Z,100637.75
2023-04-07T06:59:32.282Z,100645.38
2023-04-07T07:02:00.573Z,100639.09
2023-04-07T07:04:29.106Z,100648.06
2023-04-07T07:06:57.935Z,100649.94
2023-04-07T07:09:27.399Z,100640.41
2023-04-07T07:11:57.657Z,100641.47
2023-04-07T07:14:25.995Z,100649.06
2023-04-07T07:16:54.342Z,100647.41
2023-04-07T07:19:22.634Z,100652.84
2023-04-07T07:21:50.977Z,100650.94
2023-04-07T07:24:19.226Z,100655.00
2023-04-07T07:26:47.535Z,100656.38
2023-04-07T07:29:17.314Z,100657.69
2023-04-07T07:31:45.760Z,100662.47
2023-04-07T07:34:13.996Z,100656.75
2023-04-07T07:36:42.195Z,100660.81
2023-04-07T07:39:11.082Z,100672.53
2023-04-07T07:41:39.403Z,100663.00
2023-04-07T07:44:07.630Z,100666.22
2023-04-07T07:46:37.287Z,100667.56
2023-04-07T07:49:05.998Z,100679.75
2023-04-07T07:51:34.537Z,100681.38
2023-04-07T07:54:03.001Z,100680.81
2023-04-07T07:56:31.298Z,100686.31
2023-04-07T07:58:59.984Z,100692.53
2023-04-07T08:01:28.413Z,100693.94
2023-04-07T08:03:58.230Z,100698.28
2023-04-07T08:06:27.118Z,100699.38
2023-04-07T08:08:57.647Z,100701.53
2023-04-07T08:11:26.092Z,100702.63
2023-04-07T08:13:54.406Z,100708.13
2023-04-07T08:16:26.857Z,100710.28
2023-04-07T08:18:55.757Z,100713.53
2023-04-07T08:21:27.428Z,100708.34
2023-04-07T08:23:56.367Z,100718.69
2023-04-07T08:26:26.595Z,100716.72
2023-04-07T08:28:55.940Z,100709.66
2023-04-07T08:31:24.251Z,100724.66
2023-04-07T08:33:54.157Z,100721.06
2023-04-07T08:36:22.798Z,100725.38
2023-04-07T08:38:55.563Z,100730.59
2023-04-07T08:41:28.323Z,100727.66
2023-04-07T08:43:58.320Z,100730.91
2023-04-07T08:46:27.242Z,100729.28
2023-04-07T08:48:56.736Z,100735.53
2023-04-07T08:51:32.282Z,100736.78
2023-04-07T08:54:06.546Z,100731.06
2023-04-07T08:56:35.149Z,100736.50
2023-04-07T08:59:03.549Z,100740.34
2023-04-07T09:01:32.104Z,100740.88
2023-04-07T09:04:01.550Z,100743.00
2023-04-07T09:06:31.872Z,100739.66
2023-04-07T09:09:00.419Z,100748.72
2023-04-07T09:11:31.051Z,100753.44
2023-04-07T09:14:01.596Z,100748.78
2023-04-07T09:16:31.283Z,100750.38
2023-04-07T09:18:59.837Z,100750.00
2023-04-07T09:21:48.561Z,100752.66
2023-04-07T09:24:23.793Z,100752.38
2023-04-07T09:29:49.400Z,100759.75
2023-04-07T09:32:36.046Z,100753.69
2023-04-07T09:35:04.673Z,100747.41
2023-04-07T09:37:32.980Z,100760.13
2023-04-07T09:40:01.671Z,100759.44
2023-04-07T09:42:32.347Z,100755.16
2023-04-07T09:45:06.998Z,100756.13
2023-04-07T09:47:37.625Z,100759.16
2023-04-07T09:50:08.081Z,100760.53
2023-04-07T09:52:52.911Z,100758.34
2023-04-07T09:55:22.160Z,100762.75
2023-04-07T09:57:51.101Z,100769.47
2023-04-07T10:00:20.769Z,100759.72
2023-04-07T10:02:50.938Z,100766.06
2023-04-07T10:05:21.087Z,100768.22
2023-04-07T10:07:49.545Z,100764.25
2023-04-07T10:10:40.946Z,100778.00
2023-04-07T10:13:09.307Z,100774.34
2023-04-07T10:15:48.980Z,100780.63
2023-04-07T10:18:18.993Z,100784.38
2023-04-07T10:20:50.113Z,100789.34
2023-04-07T10:23:20.606Z,100792.41
2023-04-07T10:25:50.409Z,100786.94
2023-04-07T10:28:20.059Z,100798.44
2023-04-07T10:30:50.102Z,100794.50
2023-04-07T10:33:18.872Z,100794.00
2023-04-07T10:36:04.473Z,100796.03
2023-04-07T10:38:33.626Z,100805.19
2023-04-07T10:41:22.171Z,100799.84
2023-04-07T10:43:50.949Z,100801.84
2023-04-07T10:46:20.708Z,100797.63
2023-04-07T10:49:09.326Z,100805.09
2023-04-07T10:51:37.653Z,100808.31
2023-04-07T10:54:27.907Z,100810.13
2023-04-07T10:57:13.165Z,100809.47
2023-04-07T10:59:43.391Z,100813.72
2023-04-07T11:02:30.444Z,100819.59
2023-04-07T11:05:00.455Z,100817.88
2023-04-07T11:07:44.886Z,100824.38
2023-04-07T11:10:15.940Z,100820.41
2023-04-07T11:12:44.573Z,100829.03
2023-04-07T11:15:19.282Z,100821.66
2023-04-07T11:17:47.613Z,100825.84
2023-04-07T11:20:17.268Z,100836.13
2023-04-07T11:23:00.180Z,100833.81
2023-04-07T11:25:30.219Z,100837.22
2023-04-07T11:27:58.899Z,100829.63
2023-04-07T11:30:27.916Z,100825.44
2023-04-07T11:32:59.502Z,100839.88
2023-04-07T11:35:29.492Z,100842.13
2023-04-07T11:37:58.762Z,100840.25
2023-04-07T11:40:34.680Z,100839.22
2023-04-07T11:43:16.159Z,100841.94
2023-04-07T11:45:44.666Z,100838.56
2023-04-07T11:48:28.796Z,100849.41
2023-04-07T11:50:58.656Z,100850.16
2023-04-07T11:53:28.620Z,100848.59
2023-04-07T11:56:03.677Z,100852.47
2023-04-07T11:58:32.019Z,100857.19
2023-04-07T12:01:05.218Z,100855.97
2023-04-07T12:03:34.076Z,100865.41
2023-04-07T12:06:04.203Z,100868.19
2023-04-07T12:08:39.763Z,100860.56
2023-04-07T12:11:09.240Z,100863.78
2023-04-07T12:13:37.869Z,100873.19
2023-04-07T12:16:06.577Z,100877.41
2023-04-07T12:18:35.195Z,100879.66
2023-04-07T12:21:21.905Z,100881.56
2023-04-07T12:23:50.799Z,100884.88
2023-04-07T12:26:23.137Z,100882.84
2023-04-07T12:29:09.087Z,100888.63
2023-04-07T12:31:37.553Z,100892.16
2023-04-07T12:34:06.263Z,100895.06
2023-04-07T12:36:36.345Z,100888.44
2023-04-07T12:39:05.684Z,100886.44
2023-04-07T12:41:34.212Z,100889.88
2023-04-07T12:44:02.573Z,100896.97
2023-04-07T12:46:31.364Z,100900.34
2023-04-07T12:49:00.205Z,100898.13
2023-04-07T12:51:29.048Z,100906.91
2023-04-07T12:53:59.250Z,100910.13
2023-04-07T12:56:27.877Z,100901.34
2023-04-07T12:58:56.260Z,100908.56
2023-04-07T13:01:24.927Z,100909.75
2023-04-07T13:03:54.121Z,100911.69
2023-04-07T13:08:53.043Z,100921.94
2023-04-07T13:11:22.698Z,100914.72
2023-04-07T13:13:51.938Z,100907.47
2023-04-07T13:16:21.667Z,100904.09
2023-04-07T13:18:50.235Z,100913.63
2023-04-07T13:21:43.671Z,100917.06
2023-04-07T13:24:09.895Z,100919.44
2023-04-07T13:26:39.623Z,100910.69
2023-04-07T13:29:08.107Z,100919.31
2023-04-07T13:31:36.654Z,100910.81
2023-04-07T13:34:05.903Z,100920.31
2023-04-07T13:36:34.361Z,100912.63
2023-04-07T13:39:02.677Z,100919.16
2023-04-07T13:41:31.695Z,100931.19
2023-04-07T13:44:01.983Z,100923.75
2023-04-07T13:46:30.603Z,100918.91
2023-04-07T13:48:59.214Z,100920.31
2023-04-07T13:51:28.053Z,100926.88
2023-04-07T13:53:56.638Z,100935.34
2023-04-07T13:56:25.082Z,100931.25
2023-04-07T13:58:53.962Z,100932.38
2023-04-07T14:01:24.185Z,100938.19
2023-04-07T14:03:54.057Z,100936.75
2023-04-07T14:06:23.070Z,100931.38
2023-04-07T14:08:51.481Z,100931.25
2023-04-07T14:11:20.347Z,100938.81
2023-04-07T14:13:48.923Z,100934.94
2023-04-07T14:16:18.493Z,100941.00
2023-04-07T14:18:49.422Z,100932.25
2023-04-07T14:21:23.005Z,100936.97
2023-04-07T14:23:52.173Z,100937.47
2023-04-07T14:26:21.305Z,100942.72
2023-04-07T14:28:49.696Z,100944.34
2023-04-07T14:31:18.178Z,100942.91
2023-04-07T14:33:48.114Z,100936.84
2023-04-07T14:36:17.544Z,100942.34
2023-04-07T14:38:45.751Z,100941.28
2023-04-07T14:41:13.994Z,100940.28
2023-04-07T14:43:42.519Z,100933.63
2023-04-07T14:46:12.240Z,100947.31
2023-04-07T14:48:40.546Z,100943.00
2023-04-07T14:51:13.811Z,100937.53
2023-04-07T14:53:43.373Z,100943.50
2023-04-07T14:56:11.738Z,100947.38
2023-04-07T14:58:40.768Z,100948.75
2023-04-07T15:01:09.101Z,100953.41
2023-04-07T15:03:37.838Z,100954.06
2023-04-07T15:06:10.096Z,100945.81
2023-04-07T15:08:39.931Z,100951.50
2023-04-07T15:11:08.269Z,100952.22
2023-04-07T15:13:37.375Z,100958.19
2023-04-07T15:16:09.788Z,100962.31
2023-04-07T15:18:39.608Z,100967.00
2023-04-07T15:21:08.140Z,100962.31
2023-04-07T15:23:37.706Z,100962.28
2023-04-07T15:26:07.744Z,100968.53
2023-04-07T15:29:03.977Z,100968.03
2023-04-07T15:31:32.404Z,100966.16
2023-04-07T15:34:00.638Z,100964.56
2023-04-07T15:36:28.938Z,100964.31
2023-04-07T15:38:57.623Z,100963.25
2023-04-07T15:41:27.322Z,100967.47
2023-04-07T15:43:56.502Z,100969.63
2023-04-07T15:46:24.735Z,100974.94
2023-04-07T15:48:52.929Z,100972.44
2023-04-07T15:51:21.567Z,100973.81
2023-04-07T15:53:50.120Z,100974.94
2023-04-07T15:56:18.788Z,100969.94
2023-04-07T15:58:48.315Z,100977.31
2023-04-07T16:01:30.919Z,100974.88
2023-04-07T16:03:59.613Z,100979.34
2023-04-07T16:06:31.764Z,100976.41
2023-04-07T16:09:00.458Z,100978.97
2023-04-07T16:11:28.878Z,100985.97
2023-04-07T16:13:58.648Z,100989.28
2023-04-07T16:16:26.931Z,100982.47
2023-04-07T16:18:55.383Z,100986.03
2023-04-07T16:21:41.775Z,100990.91
2023-04-07T16:24:10.753Z,100987.88
2023-04-07T16:26:39.244Z,100991.06
2023-04-07T16:29:08.858Z,100990.22
2023-04-07T16:31:37.440Z,100995.69
2023-04-07T16:34:05.762Z,100995.69
2023-04-07T16:36:33.993Z,100998.97
2023-04-07T16:39:02.421Z,100995.16
2023-04-07T16:41:31.058Z,100999.53
2023-04-07T16:43:59.460Z,101000.00
2023-04-07T16:46:29.764Z,100997.19
2023-04-07T16:48:58.134Z,101005.88
2023-04-07T16:51:27.055Z,101013.00
2023-04-07T16:53:55.336Z,101006.31
2023-04-07T16:56:24.309Z,101008.00
2023-04-07T16:58:52.754Z,101002.91
2023-04-07T17:01:21.355Z,101015.03
2023-04-07T17:03:51.674Z,101016.19
2023-04-07T17:06:20.359Z,101021.47
2023-04-07T17:08:49.785Z,101023.44
2023-04-07T17:11:18.039Z,101023.97
2023-04-07T17:13:47.794Z,101032.19
2023-04-07T17:16:16.426Z,101040.13
2023-04-07T17:18:44.752Z,101037.41
2023-04-07T17:21:15.444Z,101038.28
2023-04-07T17:23:43.683Z,101037.19
2023-04-07T17:26:12.016Z,101042.94
2023-04-07T17:28:40.334Z,101051.69
2023-04-07T17:31:08.702Z,101057.19
2023-04-07T17:33:37.091Z,101059.66
2023-04-07T17:36:05.538Z,101059.94
2023-04-07T17:38:35.243Z,101069.75
2023-04-07T17:41:04.510Z,101068.38
2023-04-07T17:43:33.119Z,101078.75
2023-04-07T17:46:02.228Z,101084.19
2023-04-07T17:48:30.649Z,101082.59
2023-04-07T17:50:59.938Z,101084.22
2023-04-07T17:53:28.179Z,101085.88
2023-04-07T17:55:57.864Z,101081.50
2023-04-07T17:58:26.226Z,101085.59
2023-04-07T18:00:54.853Z,101082.53
2023-04-07T18:03:23.312Z,101096.44
2023-04-07T18:05:52.369Z,101095.91
2023-04-07T18:08:20.977Z,101089.94
2023-04-07T18:10:49.174Z,101101.06
2023-04-07T18:13:18.950Z,101103.56
2023-04-07T18:15:48.082Z,101096.72
2023-04-07T18:18:17.484Z,101105.16
2023-04-07T18:20:46.106Z,101106.81
2023-04-07T18:23:14.605Z,101106.78
2023-04-07T18:25:42.981Z,101117.97
2023-04-07T18:28:12.047Z,101117.94
2023-04-07T18:30:41.943Z,101120.13
2023-04-07T18:33:10.559Z,101117.38
2023-04-07T18:35:38.926Z,101122.59
2023-04-07T18:38:07.813Z,101141.66
2023-04-07T18:40:36.283Z,101136.47
2023-04-07T18:43:04.589Z,101134.53
2023-04-07T18:45:36.636Z,101138.91
2023-04-07T18:48:06.753Z,101142.16
2023-04-07T18:50:35.008Z,101147.63
2023-04-07T18:53:03.309Z,101143.81
2023-04-07T18:55:31.507Z,101150.03
2023-04-07T18:58:00.104Z,101156.28
2023-04-07T19:00:28.589Z,101165.00
2023-04-07T19:02:56.921Z,101166.66
2023-04-07T19:05:26.636Z,101169.94
2023-04-07T19:07:54.953Z,101166.38
2023-04-07T19:10:23.349Z,101179.44
2023-04-07T19:12:51.694Z,101174.25
2023-04-07T19:15:20.055Z,101181.06
2023-04-07T19:17:48.677Z,101180.78
2023-04-07T19:20:17.200Z,101189.22
2023-04-07T19:22:47.332Z,101194.38
2023-04-07T19:25:15.739Z,101196.53
2023-04-07T19:27:44.699Z,101185.38
2023-04-07T19:30:13.709Z,101190.28
2023-04-07T19:32:42.346Z,101200.38
2023-04-07T19:35:11.635Z,101193.31
2023-04-07T19:37:41.265Z,101199.56
2023-04-07T19:40:11.437Z,101199.34
2023-04-07T19:42:40.700Z,101191.16
2023-04-07T19:45:09.425Z,101194.41
2023-04-07T19:47:38.559Z,101196.88
2023-04-07T19:50:07.679Z,101206.19
2023-04-07T19:52:36.020Z,101204.25
2023-04-07T19:55:04.704Z,101206.16
2023-04-07T19:57:35.380Z,101209.94
2023-04-07T20:00:04.274Z,101213.53
2023-04-07T20:02:32.721Z,101219.50
2023-04-07T20:05:01.009Z,101215.91
2023-04-07T20:07:29.251Z,101216.72
2023-04-07T20:09:57.988Z,101222.13
2023-04-07T20:12:26.259Z,101228.94
2023-04-07T20:14:56.335Z,101234.09
2023-04-07T20:17:24.778Z,101235.16
2023-04-07T20:19:55.841Z,101221.50
2023-04-07T20:22:24.247Z,101219.84
2023-04-07T20:24:52.562Z,101228.00
2023-04-07T20:27:21.157Z,101232.34
2023-04-07T20:29:49.548Z,101229.59
2023-04-07T20:32:19.517Z,101232.56
2023-04-07T20:34:48.282Z,101235.16
2023-04-07T20:37:16.489Z,101235.06
2023-04-07T20:39:44.820Z,101235.78
2023-04-07T20:42:13.389Z,101240.06
2023-04-07T20:44:41.857Z,101241.88
2023-04-07T20:47:10.475Z,101241.25
2023-04-07T20:49:42.617Z,101240.69
2023-04-07T20:52:11.045Z,101248.47
2023-04-07T20:54:40.468Z,101245.13
2023-04-07T20:57:08.903Z,101245.31
2023-04-07T20:59:37.113Z,101243.59
2023-04-07T21:02:05.553Z,101251.75
2023-04-07T21:04:34.247Z,101255.41
2023-04-07T21:07:04.055Z,101256.13
2023-04-07T21:09:38.258Z,101252.22
2023-04-07T21:12:06.833Z,101252.53
2023-04-07T21:14:36.032Z,101249.22
2023-04-07T21:17:04.253Z,101252.94
2023-04-07T21:19:35.614Z,101255.56
2023-04-07T21:22:05.609Z,101264.03
2023-04-07T21:24:33.872Z,101257.72
2023-04-07T21:27:02.110Z,101258.78
2023-04-07T21:29:30.794Z,101253.44
2023-04-07T21:32:00.430Z,101262.97
2023-04-07T21:34:28.896Z,101254.50
2023-04-07T21:36:57.394Z,101259.06
2023-04-07T21:39:26.975Z,101255.72
2023-04-07T21:41:55.257Z,101251.69
2023-04-07T21:44:23.442Z,101261.31
2023-04-07T21:46:52.563Z,101259.69
2023-04-07T21:49:22.289Z,101252.53
2023-04-07T21:51:50.623Z,101257.75
2023-04-07T21:54:18.940Z,101257.75
2023-04-07T21:56:49.362Z,101266.38
2023-04-07T21:59:18.104Z,101258.91
2023-04-07T22:01:47.002Z,101265.31
2023-04-07T22:04:16.035Z,101260.88
2023-04-07T22:06:44.491Z,101269.44
2023-04-07T22:09:12.718Z,101275.53
2023-04-07T22:11:40.962Z,101272.38
2023-04-07T22:14:10.852Z,101266.88
2023-04-07T22:16:39.376Z,101265.13
2023-04-07T22:19:07.794Z,101269.38
2023-04-07T22:21:36.623Z,101264.44
2023-04-07T22:24:05.491Z,101274.41
2023-04-07T22:26:33.733Z,101267.34
2023-04-07T22:29:02.042Z,101280.19
2023-04-07T22:31:31.705Z,101274.66
2023-04-07T22:34:00.282Z,101280.91
2023-04-07T22:36:28.502Z,101274.09
2023-04-07T22:38:57.015Z,101279.75
2023-04-07T22:41:26.787Z,101284.13
2023-04-07T22:43:55.263Z,101282.00
2023-04-07T22:46:23.481Z,101286.00
2023-04-07T22:48:53.117Z,101286.47
2023-04-07T22:51:22.369Z,101292.47
2023-04-07T22:53:50.748Z,101278.72
2023-04-07T22:56:20.253Z,101280.19
2023-04-07T22:58:48.688Z,101289.75
2023-04-07T23:01:17.322Z,101293.50
2023-04-07T23:03:45.647Z,101289.63
2023-04-07T23:06:15.445Z,101291.50
2023-04-07T23:08:43.882Z,101308.09
2023-04-07T23:11:12.098Z,101309.66
2023-04-07T23:13:40.260Z,101301.53
2023-04-07T23:16:12.174Z,101306.75
2023-04-07T23:18:40.785Z,101307.22
2023-04-07T23:21:09.231Z,101306.16
2023-04-07T23:23:39.619Z,101311.69
2023-04-07T23:26:08.075Z,101316.63
2023-04-07T23:28:36.576Z,101326.88
2023-04-07T23:31:06.564Z,101322.50
2023-04-07T23:33:35.045Z,101318.75
2023-04-07T23:36:03.779Z,101315.44
2023-04-07T23:38:32.352Z,101319.91
2023-04-07T23:41:02.049Z,101324.28
2023-04-07T23:43:30.465Z,101322.63
2023-04-07T23:45:58.709Z,101329.34
2023-04-07T23:48:27.237Z,101322.31
2023-04-07T23:50:55.988Z,101328.19
2023-04-07T23:53:24.205Z,101321.94
2023-04-07T23:55:52.694Z,101328.28
2023-04-07T23:58:24.148Z,101327.00
